sensor_id;sensor_type;location;lat;lon;timestamp;temperature;humidity
851;DHT22;412;51.400;7.480;2023-02-05T00:02:17;8.90;99.90
851;DHT22;412;51.400;7.480;2023-02-05T00:04:43;9.00;99.90
851;DHT22;412;51.400;7.480;2023-02-05T00:07:09;9.00;99.90
851;DHT22;412;51.400;7.480;2023-02-05T00:09:35;9.10;99.90
851;DHT22;412;51.400;7.480;2023-02-05T00:12:01;9.00;99.90
851;DHT22;412;51.400;7.480;2023-02-05T00:14:27;9.10;99.90
851;DHT22;412;51.400;7.480;2023-02-05T00:16:53;9.00;99.90
851;DHT22;412;51.400;7.480;2023-02-05T00:19:19;9.00;99.90
851;DHT22;412;51.400;7.480;2023-02-05T00:21:45;9.00;99.90
851;DHT22;412;51.400;7.480;2023-02-05T00:24:11;9.00;99.90
851;DHT22;412;51.400;7.480;2023-02-05T00:26:37;9.00;99.90
851;DHT22;412;51.400;7.480;2023-02-05T00:29:03;9.00;99.90
851;DHT22;412;51.400;7.480;2023-02-05T00:31:29;9.00;99.90
851;DHT22;412;51.400;7.480;2023-02-05T00:33:55;9.00;99.90
851;DHT22;412;51.400;7.480;2023-02-05T00:36:22;9.10;99.90
851;DHT22;412;51.400;7.480;2023-02-05T00:38:49;9.10;99.90
851;DHT22;412;51.400;7.480;2023-02-05T00:41:15;9.00;99.90
851;DHT22;412;51.400;7.480;2023-02-05T00:43:41;9.10;99.90
851;DHT22;412;51.400;7.480;2023-02-05T00:46:08;9.10;99.90
851;DHT22;412;51.400;7.480;2023-02-05T00:48:35;9.10;99.90
851;DHT22;412;51.400;7.480;2023-02-05T00:51:01;9.20;99.90
851;DHT22;412;51.400;7.480;2023-02-05T00:53:27;9.20;99.90
851;DHT22;412;51.400;7.480;2023-02-05T00:55:53;9.10;99.90
851;DHT22;412;51.400;7.480;2023-02-05T00:58:19;9.20;99.90
851;DHT22;412;51.400;7.480;2023-02-05T01:00:45;9.20;99.90
851;DHT22;412;51.400;7.480;2023-02-05T01:03:12;9.20;99.90
851;DHT22;412;51.400;7.480;2023-02-05T01:05:38;9.20;99.90
851;DHT22;412;51.400;7.480;2023-02-05T01:08:06;9.20;99.90
851;DHT22;412;51.400;7.480;2023-02-05T01:10:32;9.20;99.90
851;DHT22;412;51.400;7.480;2023-02-05T01:13:00;9.20;99.90
851;DHT22;412;51.400;7.480;2023-02-05T01:15:26;9.20;99.90
851;DHT22;412;51.400;7.480;2023-02-05T01:17:51;9.20;99.90
851;DHT22;412;51.400;7.480;2023-02-05T01:20:17;9.20;99.90
851;DHT22;412;51.400;7.480;2023-02-05T01:22:43;9.20;99.90
851;DHT22;412;51.400;7.480;2023-02-05T01:25:09;9.20;99.90
851;DHT22;412;51.400;7.480;2023-02-05T01:27:35;9.20;99.90
851;DHT22;412;51.400;7.480;2023-02-05T01:30:02;9.20;99.90
851;DHT22;412;51.400;7.480;2023-02-05T01:32:28;9.20;99.90
851;DHT22;412;51.400;7.480;2023-02-05T01:34:54;9.20;99.90
851;DHT22;412;51.400;7.480;2023-02-05T01:37:20;9.20;99.90
851;DHT22;412;51.400;7.480;2023-02-05T01:39:46;9.20;99.90
851;DHT22;412;51.400;7.480;2023-02-05T01:42:24;9.20;99.90
851;DHT22;412;51.400;7.480;2023-02-05T01:47:48;9.20;99.90
851;DHT22;412;51.400;7.480;2023-02-05T01:50:16;9.20;99.90
851;DHT22;412;51.400;7.480;2023-02-05T01:52:43;9.30;99.90
851;DHT22;412;51.400;7.480;2023-02-05T01:55:10;9.20;99.90
851;DHT22;412;51.400;7.480;2023-02-05T01:57:37;9.20;99.90
851;DHT22;412;51.400;7.480;2023-02-05T02:00:04;9.20;99.90
851;DHT22;412;51.400;7.480;2023-02-05T02:02:30;9.10;99.90
851;DHT22;412;51.400;7.480;2023-02-05T02:05:00;9.20;99.90
851;DHT22;412;51.400;7.480;2023-02-05T02:07:27;9.20;99.90
851;DHT22;412;51.400;7.480;2023-02-05T02:09:53;9.20;99.90
851;DHT22;412;51.400;7.480;2023-02-05T02:12:26;9.30;99.90
851;DHT22;412;51.400;7.480;2023-02-05T02:14:57;9.30;99.90
851;DHT22;412;51.400;7.480;2023-02-05T02:17:25;9.30;99.90
851;DHT22;412;51.400;7.480;2023-02-05T02:19:58;9.20;99.90
851;DHT22;412;51.400;7.480;2023-02-05T02:25:20;9.20;99.90
851;DHT22;412;51.400;7.480;2023-02-05T02:31:11;9.30;99.90
851;DHT22;412;51.400;7.480;2023-02-05T02:36:17;9.30;99.90
851;DHT22;412;51.400;7.480;2023-02-05T02:39:00;9.30;99.90
851;DHT22;412;51.400;7.480;2023-02-05T02:41:38;9.30;99.90
851;DHT22;412;51.400;7.480;2023-02-05T02:44:16;9.30;99.90
851;DHT22;412;51.400;7.480;2023-02-05T02:46:50;9.40;99.90
851;DHT22;412;51.400;7.480;2023-02-05T02:49:34;9.40;99.90
851;DHT22;412;51.400;7.480;2023-02-05T02:52:03;9.40;99.90
851;DHT22;412;51.400;7.480;2023-02-05T02:54:32;9.40;99.90
851;DHT22;412;51.400;7.480;2023-02-05T02:56:58;9.40;99.90
851;DHT22;412;51.400;7.480;2023-02-05T02:59:28;9.40;99.90
851;DHT22;412;51.400;7.480;2023-02-05T03:01:57;9.40;99.90
851;DHT22;412;51.400;7.480;2023-02-05T03:04:28;9.40;99.90
851;DHT22;412;51.400;7.480;2023-02-05T03:07:10;9.40;99.90
851;DHT22;412;51.400;7.480;2023-02-05T03:12:11;9.40;99.90
851;DHT22;412;51.400;7.480;2023-02-05T03:14:37;9.40;99.90
851;DHT22;412;51.400;7.480;2023-02-05T03:17:09;9.40;99.90
851;DHT22;412;51.400;7.480;2023-02-05T03:19:44;9.50;99.90
851;DHT22;412;51.400;7.480;2023-02-05T03:22:10;9.50;99.90
851;DHT22;412;51.400;7.480;2023-02-05T03:24:37;9.60;99.90
851;DHT22;412;51.400;7.480;2023-02-05T03:27:03;9.50;99.90
851;DHT22;412;51.400;7.480;2023-02-05T03:29:31;9.70;99.90
851;DHT22;412;51.400;7.480;2023-02-05T03:32:10;9.60;99.90
851;DHT22;412;51.400;7.480;2023-02-05T03:38:01;9.70;99.90
851;DHT22;412;51.400;7.480;2023-02-05T03:45:55;9.60;99.90
851;DHT22;412;51.400;7.480;2023-02-05T03:54:02;9.50;99.90
851;DHT22;412;51.400;7.480;2023-02-05T03:59:04;9.50;99.90
851;DHT22;412;51.400;7.480;2023-02-05T04:01:31;9.50;99.90
851;DHT22;412;51.400;7.480;2023-02-05T04:03:57;9.60;99.90
851;DHT22;412;51.400;7.480;2023-02-05T04:06:23;9.50;99.90
851;DHT22;412;51.400;7.480;2023-02-05T04:08:48;9.20;99.90
851;DHT22;412;51.400;7.480;2023-02-05T04:11:14;9.20;99.90
851;DHT22;412;51.400;7.480;2023-02-05T04:13:40;9.30;99.90
851;DHT22;412;51.400;7.480;2023-02-05T04:16:05;9.30;99.90
851;DHT22;412;51.400;7.480;2023-02-05T04:18:31;9.40;99.90
851;DHT22;412;51.400;7.480;2023-02-05T04:20:57;9.40;99.90
851;DHT22;412;51.400;7.480;2023-02-05T04:23:24;9.40;99.90
851;DHT22;412;51.400;7.480;2023-02-05T04:25:53;9.40;99.90
851;DHT22;412;51.400;7.480;2023-02-05T04:28:19;9.50;99.90
851;DHT22;412;51.400;7.480;2023-02-05T04:30:45;9.40;99.90
851;DHT22;412;51.400;7.480;2023-02-05T04:33:11;9.50;99.90
851;DHT22;412;51.400;7.480;2023-02-05T04:35:36;9.50;99.90
851;DHT22;412;51.400;7.480;2023-02-05T04:38:02;9.50;99.90
851;DHT22;412;51.400;7.480;2023-02-05T04:40:28;9.50;99.90
851;DHT22;412;51.400;7.480;2023-02-05T04:42:54;9.50;99.90
851;DHT22;412;51.400;7.480;2023-02-05T04:45:20;9.50;99.90
851;DHT22;412;51.400;7.480;2023-02-05T04:47:47;9.50;99.90
851;DHT22;412;51.400;7.480;2023-02-05T04:50:13;9.50;99.90
851;DHT22;412;51.400;7.480;2023-02-05T04:52:38;9.60;99.90
851;DHT22;412;51.400;7.480;2023-02-05T04:55:05;9.60;99.90
851;DHT22;412;51.400;7.480;2023-02-05T04:57:30;9.60;99.90
851;DHT22;412;51.400;7.480;2023-02-05T04:59:56;9.60;99.90
851;DHT22;412;51.400;7.480;2023-02-05T05:02:22;9.60;99.90
851;DHT22;412;51.400;7.480;2023-02-05T05:04:48;9.60;99.90
851;DHT22;412;51.400;7.480;2023-02-05T05:07:14;9.70;99.90
851;DHT22;412;51.400;7.480;2023-02-05T05:09:41;9.70;99.90
851;DHT22;412;51.400;7.480;2023-02-05T05:12:07;9.70;99.90
851;DHT22;412;51.400;7.480;2023-02-05T05:14:32;9.70;99.90
851;DHT22;412;51.400;7.480;2023-02-05T05:16:58;9.70;99.90
851;DHT22;412;51.400;7.480;2023-02-05T05:19:24;9.70;99.90
851;DHT22;412;51.400;7.480;2023-02-05T05:21:49;9.70;99.90
851;DHT22;412;51.400;7.480;2023-02-05T05:24:15;9.70;99.90
851;DHT22;412;51.400;7.480;2023-02-05T05:26:41;9.70;99.90
851;DHT22;412;51.400;7.480;2023-02-05T05:29:13;9.70;99.90
851;DHT22;412;51.400;7.480;2023-02-05T05:31:39;9.70;99.90
851;DHT22;412;51.400;7.480;2023-02-05T05:34:05;9.70;99.90
851;DHT22;412;51.400;7.480;2023-02-05T05:36:31;9.70;99.90
851;DHT22;412;51.400;7.480;2023-02-05T05:38:57;9.70;99.90
851;DHT22;412;51.400;7.480;2023-02-05T05:41:42;9.70;99.90
851;DHT22;412;51.400;7.480;2023-02-05T05:44:27;9.70;99.90
851;DHT22;412;51.400;7.480;2023-02-05T05:46:52;9.70;99.90
851;DHT22;412;51.400;7.480;2023-02-05T05:49:18;9.70;99.90
851;DHT22;412;51.400;7.480;2023-02-05T05:51:43;9.70;99.90
851;DHT22;412;51.400;7.480;2023-02-05T05:54:09;9.80;99.90
851;DHT22;412;51.400;7.480;2023-02-05T05:56:35;9.80;99.90
851;DHT22;412;51.400;7.480;2023-02-05T05:59:00;9.90;99.90
851;DHT22;412;51.400;7.480;2023-02-05T06:01:26;9.80;99.90
851;DHT22;412;51.400;7.480;2023-02-05T06:03:52;9.80;99.90
851;DHT22;412;51.400;7.480;2023-02-05T06:06:18;9.80;99.90
851;DHT22;412;51.400;7.480;2023-02-05T06:08:44;9.80;99.90
851;DHT22;412;51.400;7.480;2023-02-05T06:11:10;9.80;99.90
851;DHT22;412;51.400;7.480;2023-02-05T06:13:36;9.90;99.90
851;DHT22;412;51.400;7.480;2023-02-05T06:16:02;9.90;99.90
851;DHT22;412;51.400;7.480;2023-02-05T06:18:28;9.90;99.90
851;DHT22;412;51.400;7.480;2023-02-05T06:20:54;9.90;99.90
851;DHT22;412;51.400;7.480;2023-02-05T06:23:20;10.00;99.90
851;DHT22;412;51.400;7.480;2023-02-05T06:25:46;10.00;99.90
851;DHT22;412;51.400;7.480;2023-02-05T06:28:11;10.00;99.90
851;DHT22;412;51.400;7.480;2023-02-05T06:30:37;10.00;99.90
851;DHT22;412;51.400;7.480;2023-02-05T06:33:03;10.00;99.90
851;DHT22;412;51.400;7.480;2023-02-05T06:35:30;10.00;99.90
851;DHT22;412;51.400;7.480;2023-02-05T06:37:55;10.00;99.90
851;DHT22;412;51.400;7.480;2023-02-05T06:40:21;10.00;99.90
851;DHT22;412;51.400;7.480;2023-02-05T06:42:51;10.00;99.90
851;DHT22;412;51.400;7.480;2023-02-05T06:45:17;9.90;99.90
851;DHT22;412;51.400;7.480;2023-02-05T06:47:43;9.90;99.90
851;DHT22;412;51.400;7.480;2023-02-05T06:50:09;10.00;99.90
851;DHT22;412;51.400;7.480;2023-02-05T06:52:35;10.00;99.90
851;DHT22;412;51.400;7.480;2023-02-05T06:55:01;10.00;99.90
851;DHT22;412;51.400;7.480;2023-02-05T06:57:27;10.00;99.90
851;DHT22;412;51.400;7.480;2023-02-05T06:59:53;9.90;99.90
851;DHT22;412;51.400;7.480;2023-02-05T07:02:18;10.00;99.90
851;DHT22;412;51.400;7.480;2023-02-05T07:04:45;10.00;99.90
851;DHT22;412;51.400;7.480;2023-02-05T07:07:10;10.00;99.90
851;DHT22;412;51.400;7.480;2023-02-05T07:09:36;10.10;99.90
851;DHT22;412;51.400;7.480;2023-02-05T07:12:02;10.00;99.90
851;DHT22;412;51.400;7.480;2023-02-05T07:14:27;10.00;99.90
851;DHT22;412;51.400;7.480;2023-02-05T07:16:55;10.10;99.90
851;DHT22;412;51.400;7.480;2023-02-05T07:19:21;10.10;99.90
851;DHT22;412;51.400;7.480;2023-02-05T07:21:47;10.20;99.90
851;DHT22;412;51.400;7.480;2023-02-05T07:24:13;10.10;99.90
851;DHT22;412;51.400;7.480;2023-02-05T07:26:39;10.10;99.90
851;DHT22;412;51.400;7.480;2023-02-05T07:29:07;10.10;99.90
851;DHT22;412;51.400;7.480;2023-02-05T07:31:32;10.10;99.90
851;DHT22;412;51.400;7.480;2023-02-05T07:33:58;10.10;99.90
851;DHT22;412;51.400;7.480;2023-02-05T07:36:24;10.10;99.90
851;DHT22;412;51.400;7.480;2023-02-05T07:38:50;10.10;99.90
851;DHT22;412;51.400;7.480;2023-02-05T07:41:16;10.10;99.90
851;DHT22;412;51.400;7.480;2023-02-05T07:43:42;10.10;99.90
851;DHT22;412;51.400;7.480;2023-02-05T07:46:12;10.10;99.90
851;DHT22;412;51.400;7.480;2023-02-05T07:48:38;10.10;99.90
851;DHT22;412;51.400;7.480;2023-02-05T07:51:05;10.10;99.90
851;DHT22;412;51.400;7.480;2023-02-05T07:53:31;10.10;99.90
851;DHT22;412;51.400;7.480;2023-02-05T07:56:03;10.10;99.90
851;DHT22;412;51.400;7.480;2023-02-05T07:58:29;10.20;99.90
851;DHT22;412;51.400;7.480;2023-02-05T08:00:59;10.10;99.90
851;DHT22;412;51.400;7.480;2023-02-05T08:03:25;10.10;99.90
851;DHT22;412;51.400;7.480;2023-02-05T08:05:50;10.10;99.90
851;DHT22;412;51.400;7.480;2023-02-05T08:08:16;10.00;99.90
851;DHT22;412;51.400;7.480;2023-02-05T08:10:42;9.90;99.90
851;DHT22;412;51.400;7.480;2023-02-05T08:13:07;9.80;99.90
851;DHT22;412;51.400;7.480;2023-02-05T08:15:33;9.80;99.90
851;DHT22;412;51.400;7.480;2023-02-05T08:17:59;9.80;99.90
851;DHT22;412;51.400;7.480;2023-02-05T08:20:25;9.70;99.90
851;DHT22;412;51.400;7.480;2023-02-05T08:22:51;9.80;99.90
851;DHT22;412;51.400;7.480;2023-02-05T08:25:17;9.70;99.90
851;DHT22;412;51.400;7.480;2023-02-05T08:27:43;9.70;99.90
851;DHT22;412;51.400;7.480;2023-02-05T08:30:12;9.70;99.90
851;DHT22;412;51.400;7.480;2023-02-05T08:32:38;9.70;99.90
851;DHT22;412;51.400;7.480;2023-02-05T08:35:04;9.60;99.90
851;DHT22;412;51.400;7.480;2023-02-05T08:37:30;9.50;99.90
851;DHT22;412;51.400;7.480;2023-02-05T08:39:56;9.60;99.90
851;DHT22;412;51.400;7.480;2023-02-05T08:42:22;9.60;99.90
851;DHT22;412;51.400;7.480;2023-02-05T08:44:49;9.60;99.90
851;DHT22;412;51.400;7.480;2023-02-05T08:47:18;9.70;99.90
851;DHT22;412;51.400;7.480;2023-02-05T08:49:44;9.80;99.90
851;DHT22;412;51.400;7.480;2023-02-05T08:52:10;9.80;99.90
851;DHT22;412;51.400;7.480;2023-02-05T08:54:35;9.70;99.90
851;DHT22;412;51.400;7.480;2023-02-05T08:57:01;9.70;99.90
851;DHT22;412;51.400;7.480;2023-02-05T08:59:27;9.70;99.90
851;DHT22;412;51.400;7.480;2023-02-05T09:01:52;9.70;99.90
851;DHT22;412;51.400;7.480;2023-02-05T09:04:20;9.70;99.90
851;DHT22;412;51.400;7.480;2023-02-05T09:06:48;10.20;99.90
851;DHT22;412;51.400;7.480;2023-02-05T09:09:13;10.80;99.90
851;DHT22;412;51.400;7.480;2023-02-05T09:11:39;11.20;99.90
851;DHT22;412;51.400;7.480;2023-02-05T09:14:05;11.60;99.90
851;DHT22;412;51.400;7.480;2023-02-05T09:16:31;12.10;99.90
851;DHT22;412;51.400;7.480;2023-02-05T09:18:58;12.50;99.90
851;DHT22;412;51.400;7.480;2023-02-05T09:21:24;13.00;99.90
851;DHT22;412;51.400;7.480;2023-02-05T09:23:53;13.40;99.90
851;DHT22;412;51.400;7.480;2023-02-05T09:26:20;13.70;99.90
851;DHT22;412;51.400;7.480;2023-02-05T09:28:46;13.90;99.90
851;DHT22;412;51.400;7.480;2023-02-05T09:31:14;14.10;99.90
851;DHT22;412;51.400;7.480;2023-02-05T09:33:41;14.30;99.90
851;DHT22;412;51.400;7.480;2023-02-05T09:36:08;14.60;99.90
851;DHT22;412;51.400;7.480;2023-02-05T09:38:35;14.80;99.90
851;DHT22;412;51.400;7.480;2023-02-05T09:41:13;14.90;99.90
851;DHT22;412;51.400;7.480;2023-02-05T09:46:49;15.00;99.90
851;DHT22;412;51.400;7.480;2023-02-05T09:49:28;15.00;99.90
851;DHT22;412;51.400;7.480;2023-02-05T09:52:06;15.00;99.90
851;DHT22;412;51.400;7.480;2023-02-05T09:54:43;15.00;99.90
851;DHT22;412;51.400;7.480;2023-02-05T09:57:15;14.90;99.90
851;DHT22;412;51.400;7.480;2023-02-05T09:59:44;15.00;99.90
851;DHT22;412;51.400;7.480;2023-02-05T10:04:52;15.10;99.90
851;DHT22;412;51.400;7.480;2023-02-05T10:10:46;15.30;99.90
851;DHT22;412;51.400;7.480;2023-02-05T10:15:31;15.50;99.90
851;DHT22;412;51.400;7.480;2023-02-05T10:21:09;15.50;99.40
851;DHT22;412;51.400;7.480;2023-02-05T10:26:15;14.90;99.90
851;DHT22;412;51.400;7.480;2023-02-05T10:31:42;14.30;99.20
851;DHT22;412;51.400;7.480;2023-02-05T10:34:33;13.90;99.90
851;DHT22;412;51.400;7.480;2023-02-05T10:37:03;13.00;99.90
851;DHT22;412;51.400;7.480;2023-02-05T10:39:29;12.60;99.90
851;DHT22;412;51.400;7.480;2023-02-05T10:42:00;12.30;99.90
851;DHT22;412;51.400;7.480;2023-02-05T10:47:11;11.80;99.90
851;DHT22;412;51.400;7.480;2023-02-05T10:49:51;11.60;99.90
851;DHT22;412;51.400;7.480;2023-02-05T10:52:20;11.20;99.90
851;DHT22;412;51.400;7.480;2023-02-05T10:54:45;11.00;99.90
851;DHT22;412;51.400;7.480;2023-02-05T10:57:17;10.90;99.90
851;DHT22;412;51.400;7.480;2023-02-05T10:59:53;10.80;99.90
851;DHT22;412;51.400;7.480;2023-02-05T11:02:21;10.70;99.90
851;DHT22;412;51.400;7.480;2023-02-05T11:05:01;10.50;99.90
851;DHT22;412;51.400;7.480;2023-02-05T11:07:47;10.40;99.90
851;DHT22;412;51.400;7.480;2023-02-05T11:12:53;10.40;99.90
851;DHT22;412;51.400;7.480;2023-02-05T11:15:25;10.30;99.90
851;DHT22;412;51.400;7.480;2023-02-05T11:17:59;10.20;99.90
851;DHT22;412;51.400;7.480;2023-02-05T11:20:34;10.10;99.90
851;DHT22;412;51.400;7.480;2023-02-05T11:23:20;10.20;99.90
851;DHT22;412;51.400;7.480;2023-02-05T11:26:00;10.00;99.90
851;DHT22;412;51.400;7.480;2023-02-05T11:28:33;10.00;99.90
851;DHT22;412;51.400;7.480;2023-02-05T11:31:24;9.90;99.90
851;DHT22;412;51.400;7.480;2023-02-05T11:33:51;9.90;99.90
851;DHT22;412;51.400;7.480;2023-02-05T11:36:22;9.90;99.90
851;DHT22;412;51.400;7.480;2023-02-05T11:38:51;9.90;99.90
851;DHT22;412;51.400;7.480;2023-02-05T11:41:33;9.90;99.90
851;DHT22;412;51.400;7.480;2023-02-05T11:44:32;9.90;99.90
851;DHT22;412;51.400;7.480;2023-02-05T11:47:01;9.90;99.90
851;DHT22;412;51.400;7.480;2023-02-05T11:49:34;10.00;99.90
851;DHT22;412;51.400;7.480;2023-02-05T11:52:07;10.00;99.90
851;DHT22;412;51.400;7.480;2023-02-05T11:54:33;9.90;99.90
851;DHT22;412;51.400;7.480;2023-02-05T11:59:30;9.80;99.90
851;DHT22;412;51.400;7.480;2023-02-05T12:05:57;9.80;99.90
851;DHT22;412;51.400;7.480;2023-02-05T12:08:35;9.70;99.90
851;DHT22;412;51.400;7.480;2023-02-05T12:14:14;9.70;99.90
851;DHT22;412;51.400;7.480;2023-02-05T12:16:52;9.70;99.90
851;DHT22;412;51.400;7.480;2023-02-05T12:19:29;9.60;99.90
851;DHT22;412;51.400;7.480;2023-02-05T12:23:07;9.60;99.90
851;DHT22;412;51.400;7.480;2023-02-05T12:25:15;9.50;99.90
851;DHT22;412;51.400;7.480;2023-02-05T12:45:16;9.30;99.90
851;DHT22;412;51.400;7.480;2023-02-05T12:50:52;9.00;99.90
851;DHT22;412;51.400;7.480;2023-02-05T12:58:51;9.10;99.90
851;DHT22;412;51.400;7.480;2023-02-05T13:01:23;9.10;99.90
851;DHT22;412;51.400;7.480;2023-02-05T13:03:55;9.10;99.90
851;DHT22;412;51.400;7.480;2023-02-05T13:06:58;9.10;99.90
851;DHT22;412;51.400;7.480;2023-02-05T13:09:30;9.10;99.90
851;DHT22;412;51.400;7.480;2023-02-05T13:12:05;9.20;99.90
851;DHT22;412;51.400;7.480;2023-02-05T13:14:39;9.00;99.90
851;DHT22;412;51.400;7.480;2023-02-05T13:17:14;8.90;99.90
851;DHT22;412;51.400;7.480;2023-02-05T13:19:47;8.90;99.90
851;DHT22;412;51.400;7.480;2023-02-05T13:22:24;8.80;99.90
851;DHT22;412;51.400;7.480;2023-02-05T13:25:22;8.80;99.90
851;DHT22;412;51.400;7.480;2023-02-05T13:28:33;8.60;99.90
851;DHT22;412;51.400;7.480;2023-02-05T13:31:30;8.40;99.90
851;DHT22;412;51.400;7.480;2023-02-05T13:34:03;8.50;99.90
851;DHT22;412;51.400;7.480;2023-02-05T13:36:57;8.70;99.90
851;DHT22;412;51.400;7.480;2023-02-05T13:45:24;8.70;99.90
851;DHT22;412;51.400;7.480;2023-02-05T13:59:41;8.90;99.90
851;DHT22;412;51.400;7.480;2023-02-05T14:04:52;8.90;99.90
851;DHT22;412;51.400;7.480;2023-02-05T14:08:04;9.00;99.90
851;DHT22;412;51.400;7.480;2023-02-05T14:10:25;9.00;99.90
851;DHT22;412;51.400;7.480;2023-02-05T14:12:51;8.90;99.90
851;DHT22;412;51.400;7.480;2023-02-05T14:22:52;8.90;99.90
851;DHT22;412;51.400;7.480;2023-02-05T14:28:31;8.70;99.90
851;DHT22;412;51.400;7.480;2023-02-05T14:30:59;8.70;99.90
851;DHT22;412;51.400;7.480;2023-02-05T14:41:17;8.80;99.90
851;DHT22;412;51.400;7.480;2023-02-05T14:43:59;8.90;99.90
851;DHT22;412;51.400;7.480;2023-02-05T14:46:35;8.90;99.90
851;DHT22;412;51.400;7.480;2023-02-05T14:49:05;9.00;99.90
851;DHT22;412;51.400;7.480;2023-02-05T14:51:41;9.00;99.90
851;DHT22;412;51.400;7.480;2023-02-05T14:54:21;9.10;99.90
851;DHT22;412;51.400;7.480;2023-02-05T14:57:06;9.00;99.90
851;DHT22;412;51.400;7.480;2023-02-05T14:59:53;8.60;99.90
851;DHT22;412;51.400;7.480;2023-02-05T15:13:17;8.30;99.90
851;DHT22;412;51.400;7.480;2023-02-05T15:24:00;8.10;99.90
851;DHT22;412;51.400;7.480;2023-02-05T15:26:41;8.10;99.90
851;DHT22;412;51.400;7.480;2023-02-05T15:36:53;8.50;99.90
851;DHT22;412;51.400;7.480;2023-02-05T15:39:30;8.60;99.90
851;DHT22;412;51.400;7.480;2023-02-05T15:41:59;8.70;99.90
851;DHT22;412;51.400;7.480;2023-02-05T15:44:28;8.80;99.90
851;DHT22;412;51.400;7.480;2023-02-05T15:46:56;8.70;99.90
851;DHT22;412;51.400;7.480;2023-02-05T15:49:29;8.80;99.90
851;DHT22;412;51.400;7.480;2023-02-05T15:51:55;8.90;99.90
851;DHT22;412;51.400;7.480;2023-02-05T15:54:22;8.90;99.90
851;DHT22;412;51.400;7.480;2023-02-05T15:56:49;9.00;99.90
851;DHT22;412;51.400;7.480;2023-02-05T15:59:23;9.00;99.90
851;DHT22;412;51.400;7.480;2023-02-05T16:02:32;9.00;99.90
851;DHT22;412;51.400;7.480;2023-02-05T16:05:02;9.10;99.90
851;DHT22;412;51.400;7.480;2023-02-05T16:07:39;9.10;99.90
851;DHT22;412;51.400;7.480;2023-02-05T16:10:17;9.20;99.90
851;DHT22;412;51.400;7.480;2023-02-05T16:13:01;9.10;99.90
851;DHT22;412;51.400;7.480;2023-02-05T16:18:19;9.10;99.90
851;DHT22;412;51.400;7.480;2023-02-05T16:20:54;9.10;99.90
851;DHT22;412;51.400;7.480;2023-02-05T16:23:29;9.10;99.90
851;DHT22;412;51.400;7.480;2023-02-05T16:26:03;9.10;99.90
851;DHT22;412;51.400;7.480;2023-02-05T16:28:47;9.10;99.90
851;DHT22;412;51.400;7.480;2023-02-05T16:31:20;9.10;99.90
851;DHT22;412;51.400;7.480;2023-02-05T16:34:15;9.10;99.90
851;DHT22;412;51.400;7.480;2023-02-05T16:36:47;9.10;99.90
851;DHT22;412;51.400;7.480;2023-02-05T16:39:50;9.10;99.90
851;DHT22;412;51.400;7.480;2023-02-05T16:47:35;9.30;99.90
851;DHT22;412;51.400;7.480;2023-02-05T16:50:37;9.30;99.90
851;DHT22;412;51.400;7.480;2023-02-05T16:53:35;9.20;99.90
851;DHT22;412;51.400;7.480;2023-02-05T16:56:09;9.30;99.90
851;DHT22;412;51.400;7.480;2023-02-05T16:58:43;9.30;99.90
851;DHT22;412;51.400;7.480;2023-02-05T17:01:10;9.30;99.90
851;DHT22;412;51.400;7.480;2023-02-05T17:03:48;9.40;99.90
851;DHT22;412;51.400;7.480;2023-02-05T17:06:16;9.50;99.90
851;DHT22;412;51.400;7.480;2023-02-05T17:08:49;9.50;99.90
851;DHT22;412;51.400;7.480;2023-02-05T17:11:38;9.20;99.90
851;DHT22;412;51.400;7.480;2023-02-05T17:14:27;9.10;99.90
851;DHT22;412;51.400;7.480;2023-02-05T17:17:00;8.90;99.90
851;DHT22;412;51.400;7.480;2023-02-05T17:19:31;8.90;99.90
851;DHT22;412;51.400;7.480;2023-02-05T17:24:51;8.80;99.90
851;DHT22;412;51.400;7.480;2023-02-05T17:27:51;8.70;99.90
851;DHT22;412;51.400;7.480;2023-02-05T17:30:17;8.80;99.90
851;DHT22;412;51.400;7.480;2023-02-05T17:32:44;8.80;99.90
851;DHT22;412;51.400;7.480;2023-02-05T17:35:18;8.90;99.90
851;DHT22;412;51.400;7.480;2023-02-05T17:37:47;9.00;99.90
851;DHT22;412;51.400;7.480;2023-02-05T17:40:13;9.00;99.90
851;DHT22;412;51.400;7.480;2023-02-05T17:42:40;9.00;99.90
851;DHT22;412;51.400;7.480;2023-02-05T17:45:23;9.10;99.90
851;DHT22;412;51.400;7.480;2023-02-05T17:47:50;9.10;99.90
851;DHT22;412;51.400;7.480;2023-02-05T17:50:16;9.10;99.90
851;DHT22;412;51.400;7.480;2023-02-05T17:52:43;9.20;99.90
851;DHT22;412;51.400;7.480;2023-02-05T17:55:20;9.20;99.90
851;DHT22;412;51.400;7.480;2023-02-05T17:57:46;9.20;99.90
851;DHT22;412;51.400;7.480;2023-02-05T18:02:39;9.20;99.90
851;DHT22;412;51.400;7.480;2023-02-05T18:05:05;9.30;99.90
851;DHT22;412;51.400;7.480;2023-02-05T18:07:48;9.20;99.90
851;DHT22;412;51.400;7.480;2023-02-05T18:10:22;9.20;99.90
851;DHT22;412;51.400;7.480;2023-02-05T18:12:48;9.20;99.90
851;DHT22;412;51.400;7.480;2023-02-05T18:15:14;9.20;99.90
851;DHT22;412;51.400;7.480;2023-02-05T18:17:41;9.20;99.90
851;DHT22;412;51.400;7.480;2023-02-05T18:20:07;9.20;99.90
851;DHT22;412;51.400;7.480;2023-02-05T18:22:33;9.20;99.90
851;DHT22;412;51.400;7.480;2023-02-05T18:24:59;9.20;99.90
851;DHT22;412;51.400;7.480;2023-02-05T18:27:25;9.30;99.90
851;DHT22;412;51.400;7.480;2023-02-05T18:29:52;9.30;99.90
851;DHT22;412;51.400;7.480;2023-02-05T18:32:17;9.30;99.90
851;DHT22;412;51.400;7.480;2023-02-05T18:34:43;9.30;99.90
851;DHT22;412;51.400;7.480;2023-02-05T18:37:09;9.30;99.90
851;DHT22;412;51.400;7.480;2023-02-05T18:39:36;9.30;99.90
851;DHT22;412;51.400;7.480;2023-02-05T18:42:02;9.30;99.90
851;DHT22;412;51.400;7.480;2023-02-05T18:44:28;9.20;99.90
851;DHT22;412;51.400;7.480;2023-02-05T18:46:53;9.30;99.90
851;DHT22;412;51.400;7.480;2023-02-05T18:49:19;9.30;99.90
851;DHT22;412;51.400;7.480;2023-02-05T18:51:45;9.30;99.90
851;DHT22;412;51.400;7.480;2023-02-05T18:54:11;9.40;99.90
851;DHT22;412;51.400;7.480;2023-02-05T18:56:37;9.30;99.90
851;DHT22;412;51.400;7.480;2023-02-05T18:59:05;9.30;99.90
851;DHT22;412;51.400;7.480;2023-02-05T19:01:36;9.30;99.90
851;DHT22;412;51.400;7.480;2023-02-05T19:04:14;9.30;99.90
851;DHT22;412;51.400;7.480;2023-02-05T19:06:44;9.20;99.90
851;DHT22;412;51.400;7.480;2023-02-05T19:09:13;9.20;99.90
851;DHT22;412;51.400;7.480;2023-02-05T19:11:39;9.30;99.90
851;DHT22;412;51.400;7.480;2023-02-05T19:14:07;9.20;99.90
851;DHT22;412;51.400;7.480;2023-02-05T19:16:35;9.30;99.90
851;DHT22;412;51.400;7.480;2023-02-05T19:19:03;9.20;99.90
851;DHT22;412;51.400;7.480;2023-02-05T19:21:29;9.30;99.90
851;DHT22;412;51.400;7.480;2023-02-05T19:23:57;9.20;99.90
851;DHT22;412;51.400;7.480;2023-02-05T19:26:25;9.20;99.90
851;DHT22;412;51.400;7.480;2023-02-05T19:29:04;9.10;99.90
851;DHT22;412;51.400;7.480;2023-02-05T19:31:31;9.10;99.90
851;DHT22;412;51.400;7.480;2023-02-05T19:33:58;9.00;99.90
851;DHT22;412;51.400;7.480;2023-02-05T19:36:25;9.10;99.90
851;DHT22;412;51.400;7.480;2023-02-05T19:38:51;9.10;99.90
851;DHT22;412;51.400;7.480;2023-02-05T19:41:20;9.00;99.90
851;DHT22;412;51.400;7.480;2023-02-05T19:43:52;9.00;99.90
851;DHT22;412;51.400;7.480;2023-02-05T19:46:20;9.00;99.90
851;DHT22;412;51.400;7.480;2023-02-05T19:48:47;9.00;99.90
851;DHT22;412;51.400;7.480;2023-02-05T19:51:15;9.00;99.90
851;DHT22;412;51.400;7.480;2023-02-05T19:53:43;9.00;99.90
851;DHT22;412;51.400;7.480;2023-02-05T19:56:21;9.00;99.90
851;DHT22;412;51.400;7.480;2023-02-05T19:58:49;8.90;99.90
851;DHT22;412;51.400;7.480;2023-02-05T20:01:27;8.90;99.90